sensor_id;sensor_type;location;lat;lon;timestamp;temperature;humidity
51500;DHT22;39101;53.478;6.158;2022-12-18T00:02:16;-3.00;99.90
51500;DHT22;39101;53.478;6.158;2022-12-18T00:04:42;-3.00;99.90
51500;DHT22;39101;53.478;6.158;2022-12-18T00:07:07;-3.00;99.90
51500;DHT22;39101;53.478;6.158;2022-12-18T00:09:33;-2.90;99.90
51500;DHT22;39101;53.478;6.158;2022-12-18T00:11:59;-3.00;99.90
51500;DHT22;39101;53.478;6.158;2022-12-18T00:14:24;-1.40;99.90
51500;DHT22;39101;53.478;6.158;2022-12-18T00:16:50;-3.00;99.90
51500;DHT22;39101;53.478;6.158;2022-12-18T00:19:16;-3.00;99.90
51500;DHT22;39101;53.478;6.158;2022-12-18T00:21:43;-1.40;99.90
51500;DHT22;39101;53.478;6.158;2022-12-18T00:24:10;-3.10;99.90
51500;DHT22;39101;53.478;6.158;2022-12-18T00:26:37;-3.00;99.90
51500;DHT22;39101;53.478;6.158;2022-12-18T00:29:14;-3.10;99.90
51500;DHT22;39101;53.478;6.158;2022-12-18T00:31:41;-3.10;99.90
51500;DHT22;39101;53.478;6.158;2022-12-18T00:34:10;-3.20;99.90
51500;DHT22;39101;53.478;6.158;2022-12-18T00:36:36;-3.20;99.90
51500;DHT22;39101;53.478;6.158;2022-12-18T00:39:04;-3.20;99.90
51500;DHT22;39101;53.478;6.158;2022-12-18T00:41:30;-3.10;99.90
51500;DHT22;39101;53.478;6.158;2022-12-18T00:44:16;-2.70;99.90
51500;DHT22;39101;53.478;6.158;2022-12-18T00:46:42;-3.10;99.90
51500;DHT22;39101;53.478;6.158;2022-12-18T00:49:09;-3.10;99.90
51500;DHT22;39101;53.478;6.158;2022-12-18T00:51:34;-3.30;99.90
51500;DHT22;39101;53.478;6.158;2022-12-18T00:54:00;-3.20;99.90
51500;DHT22;39101;53.478;6.158;2022-12-18T00:56:26;-3.10;99.90
51500;DHT22;39101;53.478;6.158;2022-12-18T00:58:52;-3.20;99.90
51500;DHT22;39101;53.478;6.158;2022-12-18T01:01:18;-2.60;99.90
51500;DHT22;39101;53.478;6.158;2022-12-18T01:03:43;-3.10;99.90
51500;DHT22;39101;53.478;6.158;2022-12-18T01:06:12;-3.30;99.90
51500;DHT22;39101;53.478;6.158;2022-12-18T01:08:38;-3.30;99.90
51500;DHT22;39101;53.478;6.158;2022-12-18T01:11:09;-3.20;99.90
51500;DHT22;39101;53.478;6.158;2022-12-18T01:13:35;-3.20;99.90
51500;DHT22;39101;53.478;6.158;2022-12-18T01:16:01;-3.30;99.90
51500;DHT22;39101;53.478;6.158;2022-12-18T01:18:26;-3.30;99.90
51500;DHT22;39101;53.478;6.158;2022-12-18T01:20:52;-3.20;99.90
51500;DHT22;39101;53.478;6.158;2022-12-18T01:23:18;-3.20;99.90
51500;DHT22;39101;53.478;6.158;2022-12-18T01:25:43;-3.20;99.90
51500;DHT22;39101;53.478;6.158;2022-12-18T01:28:09;-3.00;99.90
51500;DHT22;39101;53.478;6.158;2022-12-18T01:30:34;-3.20;99.90
51500;DHT22;39101;53.478;6.158;2022-12-18T01:33:00;-3.40;99.90
51500;DHT22;39101;53.478;6.158;2022-12-18T01:35:26;-3.20;99.90
51500;DHT22;39101;53.478;6.158;2022-12-18T01:37:54;-3.30;99.90
51500;DHT22;39101;53.478;6.158;2022-12-18T01:40:20;-3.40;99.90
51500;DHT22;39101;53.478;6.158;2022-12-18T01:42:54;-3.30;99.90
51500;DHT22;39101;53.478;6.158;2022-12-18T01:45:26;-3.40;99.90
51500;DHT22;39101;53.478;6.158;2022-12-18T01:47:59;-3.40;99.90
51500;DHT22;39101;53.478;6.158;2022-12-18T01:50:31;-3.50;99.90
51500;DHT22;39101;53.478;6.158;2022-12-18T01:53:14;-3.30;99.90
51500;DHT22;39101;53.478;6.158;2022-12-18T01:55:44;-3.40;99.90
51500;DHT22;39101;53.478;6.158;2022-12-18T01:58:12;-3.30;99.90
51500;DHT22;39101;53.478;6.158;2022-12-18T02:00:38;-3.40;99.90
51500;DHT22;39101;53.478;6.158;2022-12-18T02:03:04;-3.40;99.90
51500;DHT22;39101;53.478;6.158;2022-12-18T02:08:27;-3.40;99.90
51500;DHT22;39101;53.478;6.158;2022-12-18T02:13:45;-3.30;99.90
51500;DHT22;39101;53.478;6.158;2022-12-18T02:18:50;-3.40;99.90
51500;DHT22;39101;53.478;6.158;2022-12-18T02:26:36;-3.60;99.90
51500;DHT22;39101;53.478;6.158;2022-12-18T02:29:18;-3.60;99.90
51500;DHT22;39101;53.478;6.158;2022-12-18T02:31:56;-3.60;99.90
51500;DHT22;39101;53.478;6.158;2022-12-18T02:34:26;-3.70;99.90
51500;DHT22;39101;53.478;6.158;2022-12-18T02:36:54;-3.60;99.90
51500;DHT22;39101;53.478;6.158;2022-12-18T02:39:22;-3.60;99.90
51500;DHT22;39101;53.478;6.158;2022-12-18T02:41:50;-3.50;99.90
51500;DHT22;39101;53.478;6.158;2022-12-18T02:44:16;-3.50;99.90
51500;DHT22;39101;53.478;6.158;2022-12-18T02:46:50;-3.60;99.90
51500;DHT22;39101;53.478;6.158;2022-12-18T02:54:52;-3.70;99.90
51500;DHT22;39101;53.478;6.158;2022-12-18T02:57:32;-3.70;99.90
51500;DHT22;39101;53.478;6.158;2022-12-18T03:00:22;-3.60;99.90
51500;DHT22;39101;53.478;6.158;2022-12-18T03:02:53;-3.60;99.90
51500;DHT22;39101;53.478;6.158;2022-12-18T03:05:41;-3.50;99.90
51500;DHT22;39101;53.478;6.158;2022-12-18T03:08:19;-3.60;99.90
51500;DHT22;39101;53.478;6.158;2022-12-18T03:10:55;-3.60;99.90
51500;DHT22;39101;53.478;6.158;2022-12-18T03:13:38;-3.70;99.90
51500;DHT22;39101;53.478;6.158;2022-12-18T03:16:09;-3.70;99.90
51500;DHT22;39101;53.478;6.158;2022-12-18T03:18:39;-3.60;99.90
51500;DHT22;39101;53.478;6.158;2022-12-18T03:21:08;-3.70;99.90
51500;DHT22;39101;53.478;6.158;2022-12-18T03:23:40;-3.70;99.90
51500;DHT22;39101;53.478;6.158;2022-12-18T03:26:10;-3.70;99.90
51500;DHT22;39101;53.478;6.158;2022-12-18T03:28:43;-3.70;99.90
51500;DHT22;39101;53.478;6.158;2022-12-18T03:31:12;-3.50;99.90
51500;DHT22;39101;53.478;6.158;2022-12-18T03:34:19;-3.60;99.90
51500;DHT22;39101;53.478;6.158;2022-12-18T03:36:45;-3.60;99.90
51500;DHT22;39101;53.478;6.158;2022-12-18T03:39:11;-3.60;99.90
51500;DHT22;39101;53.478;6.158;2022-12-18T03:41:52;-3.70;99.90
51500;DHT22;39101;53.478;6.158;2022-12-18T03:44:27;-3.60;99.90
51500;DHT22;39101;53.478;6.158;2022-12-18T03:50:11;-3.60;99.90
51500;DHT22;39101;53.478;6.158;2022-12-18T03:55:35;-3.70;99.90
51500;DHT22;39101;53.478;6.158;2022-12-18T03:58:03;-3.70;99.90
51500;DHT22;39101;53.478;6.158;2022-12-18T04:00:31;-3.80;99.90
51500;DHT22;39101;53.478;6.158;2022-12-18T04:02:59;-3.90;99.90
51500;DHT22;39101;53.478;6.158;2022-12-18T04:05:28;-3.80;99.90
51500;DHT22;39101;53.478;6.158;2022-12-18T04:07:55;-3.90;99.90
51500;DHT22;39101;53.478;6.158;2022-12-18T04:10:21;-3.90;99.90
51500;DHT22;39101;53.478;6.158;2022-12-18T04:12:47;-4.00;99.90
51500;DHT22;39101;53.478;6.158;2022-12-18T04:15:13;-3.90;99.90
51500;DHT22;39101;53.478;6.158;2022-12-18T04:17:47;-3.90;99.90
51500;DHT22;39101;53.478;6.158;2022-12-18T04:20:13;-2.60;99.90
51500;DHT22;39101;53.478;6.158;2022-12-18T04:22:39;-4.00;99.90
51500;DHT22;39101;53.478;6.158;2022-12-18T04:25:05;-4.00;99.90
51500;DHT22;39101;53.478;6.158;2022-12-18T04:27:31;-4.00;99.90
51500;DHT22;39101;53.478;6.158;2022-12-18T04:29:57;-4.10;99.90
51500;DHT22;39101;53.478;6.158;2022-12-18T04:32:22;-4.00;99.90
51500;DHT22;39101;53.478;6.158;2022-12-18T04:34:48;-4.10;99.90
51500;DHT22;39101;53.478;6.158;2022-12-18T04:37:13;-4.10;99.90
51500;DHT22;39101;53.478;6.158;2022-12-18T04:39:39;-4.10;99.90
51500;DHT22;39101;53.478;6.158;2022-12-18T04:42:05;-4.00;99.90
51500;DHT22;39101;53.478;6.158;2022-12-18T04:44:31;-4.10;99.90
51500;DHT22;39101;53.478;6.158;2022-12-18T04:46:56;-4.20;99.90
51500;DHT22;39101;53.478;6.158;2022-12-18T04:49:22;-4.00;99.90
51500;DHT22;39101;53.478;6.158;2022-12-18T04:51:47;-4.20;99.90
51500;DHT22;39101;53.478;6.158;2022-12-18T04:54:13;-4.20;99.90
51500;DHT22;39101;53.478;6.158;2022-12-18T04:56:39;-4.20;99.90
51500;DHT22;39101;53.478;6.158;2022-12-18T04:59:05;-4.20;99.90
51500;DHT22;39101;53.478;6.158;2022-12-18T05:01:31;-4.20;99.90
51500;DHT22;39101;53.478;6.158;2022-12-18T05:03:56;-4.10;99.90
51500;DHT22;39101;53.478;6.158;2022-12-18T05:06:22;-4.30;99.90
51500;DHT22;39101;53.478;6.158;2022-12-18T05:08:47;-4.20;99.90
51500;DHT22;39101;53.478;6.158;2022-12-18T05:11:14;-4.20;99.90
51500;DHT22;39101;53.478;6.158;2022-12-18T05:13:44;-4.30;99.90
51500;DHT22;39101;53.478;6.158;2022-12-18T05:16:10;-4.30;99.90
51500;DHT22;39101;53.478;6.158;2022-12-18T05:18:36;-4.30;99.90
51500;DHT22;39101;53.478;6.158;2022-12-18T05:21:02;-4.40;99.90
51500;DHT22;39101;53.478;6.158;2022-12-18T05:23:29;-4.40;99.90
51500;DHT22;39101;53.478;6.158;2022-12-18T05:26:00;-4.40;99.90
51500;DHT22;39101;53.478;6.158;2022-12-18T05:28:28;-4.50;99.90
51500;DHT22;39101;53.478;6.158;2022-12-18T05:30:56;-4.40;99.90
51500;DHT22;39101;53.478;6.158;2022-12-18T05:33:23;-4.40;99.90
51500;DHT22;39101;53.478;6.158;2022-12-18T05:35:53;-4.30;99.90
51500;DHT22;39101;53.478;6.158;2022-12-18T05:38:21;-2.90;99.90
51500;DHT22;39101;53.478;6.158;2022-12-18T05:40:50;-4.20;99.90
51500;DHT22;39101;53.478;6.158;2022-12-18T05:43:18;-4.20;99.90
51500;DHT22;39101;53.478;6.158;2022-12-18T05:45:44;-4.20;99.90
51500;DHT22;39101;53.478;6.158;2022-12-18T05:48:10;-4.10;99.90
51500;DHT22;39101;53.478;6.158;2022-12-18T05:50:37;-4.10;99.90
51500;DHT22;39101;53.478;6.158;2022-12-18T05:53:03;-4.10;99.90
51500;DHT22;39101;53.478;6.158;2022-12-18T05:55:32;-4.00;99.90
51500;DHT22;39101;53.478;6.158;2022-12-18T05:57:58;-4.10;99.90
51500;DHT22;39101;53.478;6.158;2022-12-18T06:00:24;-4.10;99.90
51500;DHT22;39101;53.478;6.158;2022-12-18T06:02:50;-3.60;99.90
51500;DHT22;39101;53.478;6.158;2022-12-18T06:05:15;-4.10;99.90
51500;DHT22;39101;53.478;6.158;2022-12-18T06:07:42;-4.10;99.90
51500;DHT22;39101;53.478;6.158;2022-12-18T06:10:08;-4.20;99.90
51500;DHT22;39101;53.478;6.158;2022-12-18T06:12:34;-4.10;99.90
51500;DHT22;39101;53.478;6.158;2022-12-18T06:15:00;-4.30;99.90
51500;DHT22;39101;53.478;6.158;2022-12-18T06:17:33;-4.20;99.90
51500;DHT22;39101;53.478;6.158;2022-12-18T06:19:59;-4.30;99.90
51500;DHT22;39101;53.478;6.158;2022-12-18T06:22:24;-4.30;99.90
51500;DHT22;39101;53.478;6.158;2022-12-18T06:24:50;-4.40;99.90
51500;DHT22;39101;53.478;6.158;2022-12-18T06:27:16;-4.40;99.90
51500;DHT22;39101;53.478;6.158;2022-12-18T06:29:42;-4.50;99.90
51500;DHT22;39101;53.478;6.158;2022-12-18T06:32:08;-4.50;99.90
51500;DHT22;39101;53.478;6.158;2022-12-18T06:34:34;-4.50;99.90
51500;DHT22;39101;53.478;6.158;2022-12-18T06:36:59;-4.60;99.90
51500;DHT22;39101;53.478;6.158;2022-12-18T06:39:27;-4.40;99.90
51500;DHT22;39101;53.478;6.158;2022-12-18T06:41:53;-4.50;99.90
51500;DHT22;39101;53.478;6.158;2022-12-18T06:44:19;-4.40;99.90
51500;DHT22;39101;53.478;6.158;2022-12-18T06:46:45;-4.40;99.90
51500;DHT22;39101;53.478;6.158;2022-12-18T06:49:10;-4.40;99.90
51500;DHT22;39101;53.478;6.158;2022-12-18T06:51:36;-4.50;99.90
51500;DHT22;39101;53.478;6.158;2022-12-18T06:54:02;-4.30;99.90
51500;DHT22;39101;53.478;6.158;2022-12-18T06:56:28;-4.40;99.90
51500;DHT22;39101;53.478;6.158;2022-12-18T06:58:54;-4.40;99.90
51500;DHT22;39101;53.478;6.158;2022-12-18T07:01:20;-4.30;99.90
51500;DHT22;39101;53.478;6.158;2022-12-18T07:03:46;-4.40;99.90
51500;DHT22;39101;53.478;6.158;2022-12-18T07:06:17;-4.40;99.90
51500;DHT22;39101;53.478;6.158;2022-12-18T07:08:45;-4.40;99.90
51500;DHT22;39101;53.478;6.158;2022-12-18T07:11:11;-4.50;99.90
51500;DHT22;39101;53.478;6.158;2022-12-18T07:13:36;-4.50;99.90
51500;DHT22;39101;53.478;6.158;2022-12-18T07:18:39;-4.60;99.90
51500;DHT22;39101;53.478;6.158;2022-12-18T07:21:06;-4.70;99.90
51500;DHT22;39101;53.478;6.158;2022-12-18T07:23:33;-4.70;99.90
51500;DHT22;39101;53.478;6.158;2022-12-18T07:26:07;-4.70;99.90
51500;DHT22;39101;53.478;6.158;2022-12-18T07:28:35;-4.70;99.90
51500;DHT22;39101;53.478;6.158;2022-12-18T07:31:11;-4.70;99.90
51500;DHT22;39101;53.478;6.158;2022-12-18T07:33:37;-4.80;99.90
51500;DHT22;39101;53.478;6.158;2022-12-18T07:36:04;-4.70;99.90
51500;DHT22;39101;53.478;6.158;2022-12-18T07:38:31;-4.70;99.90
51500;DHT22;39101;53.478;6.158;2022-12-18T07:41:01;-4.70;99.90
51500;DHT22;39101;53.478;6.158;2022-12-18T07:43:27;-4.80;99.90
51500;DHT22;39101;53.478;6.158;2022-12-18T07:45:53;-4.80;99.90
51500;DHT22;39101;53.478;6.158;2022-12-18T07:48:18;-4.70;99.90
51500;DHT22;39101;53.478;6.158;2022-12-18T07:50:44;-4.80;99.90
51500;DHT22;39101;53.478;6.158;2022-12-18T07:53:10;-4.70;99.90
51500;DHT22;39101;53.478;6.158;2022-12-18T07:55:35;-4.70;99.90
51500;DHT22;39101;53.478;6.158;2022-12-18T07:58:02;-4.70;99.90
51500;DHT22;39101;53.478;6.158;2022-12-18T08:00:28;-4.60;99.90
51500;DHT22;39101;53.478;6.158;2022-12-18T08:02:54;-3.20;99.90
51500;DHT22;39101;53.478;6.158;2022-12-18T08:05:20;-4.60;99.90
51500;DHT22;39101;53.478;6.158;2022-12-18T08:07:46;-4.60;99.90
51500;DHT22;39101;53.478;6.158;2022-12-18T08:10:12;-4.60;99.90
51500;DHT22;39101;53.478;6.158;2022-12-18T08:12:38;-3.30;99.90
51500;DHT22;39101;53.478;6.158;2022-12-18T08:15:04;-4.50;99.90
51500;DHT22;39101;53.478;6.158;2022-12-18T08:17:30;-4.50;99.90
51500;DHT22;39101;53.478;6.158;2022-12-18T08:19:55;-4.50;99.90
51500;DHT22;39101;53.478;6.158;2022-12-18T08:22:21;-4.60;99.90
51500;DHT22;39101;53.478;6.158;2022-12-18T08:24:46;-4.50;99.90
51500;DHT22;39101;53.478;6.158;2022-12-18T08:27:12;-4.50;99.90
51500;DHT22;39101;53.478;6.158;2022-12-18T08:29:38;-4.50;99.90
51500;DHT22;39101;53.478;6.158;2022-12-18T08:32:04;-4.50;99.90
51500;DHT22;39101;53.478;6.158;2022-12-18T08:34:29;-4.40;99.90
51500;DHT22;39101;53.478;6.158;2022-12-18T08:36:55;-4.40;99.90
51500;DHT22;39101;53.478;6.158;2022-12-18T08:39:21;-4.40;99.90
51500;DHT22;39101;53.478;6.158;2022-12-18T08:41:46;-4.30;99.90
51500;DHT22;39101;53.478;6.158;2022-12-18T08:44:32;-4.40;99.90
51500;DHT22;39101;53.478;6.158;2022-12-18T08:47:05;-4.30;99.90
51500;DHT22;39101;53.478;6.158;2022-12-18T08:49:31;-4.30;99.90
51500;DHT22;39101;53.478;6.158;2022-12-18T08:51:57;-4.30;99.90
51500;DHT22;39101;53.478;6.158;2022-12-18T08:54:24;-2.70;99.90
51500;DHT22;39101;53.478;6.158;2022-12-18T08:56:49;-4.20;99.90
51500;DHT22;39101;53.478;6.158;2022-12-18T08:59:19;-4.30;99.90
51500;DHT22;39101;53.478;6.158;2022-12-18T09:01:46;-4.20;99.90
51500;DHT22;39101;53.478;6.158;2022-12-18T09:04:12;-4.10;99.90
51500;DHT22;39101;53.478;6.158;2022-12-18T09:06:37;-4.10;99.90
51500;DHT22;39101;53.478;6.158;2022-12-18T09:09:04;-4.00;99.90
51500;DHT22;39101;53.478;6.158;2022-12-18T09:11:31;-3.90;99.90
51500;DHT22;39101;53.478;6.158;2022-12-18T09:13:58;-3.90;99.90
51500;DHT22;39101;53.478;6.158;2022-12-18T09:16:26;-3.90;99.90
51500;DHT22;39101;53.478;6.158;2022-12-18T09:18:54;-3.80;99.90
51500;DHT22;39101;53.478;6.158;2022-12-18T09:21:26;-3.70;99.90
51500;DHT22;39101;53.478;6.158;2022-12-18T09:23:54;-3.70;99.90
51500;DHT22;39101;53.478;6.158;2022-12-18T09:26:21;-3.70;99.90
51500;DHT22;39101;53.478;6.158;2022-12-18T09:28:46;-3.60;99.90
51500;DHT22;39101;53.478;6.158;2022-12-18T09:31:12;-3.60;99.90
51500;DHT22;39101;53.478;6.158;2022-12-18T09:33:38;-2.40;99.90
51500;DHT22;39101;53.478;6.158;2022-12-18T09:36:05;-3.60;99.90
51500;DHT22;39101;53.478;6.158;2022-12-18T09:38:32;-3.60;99.90
51500;DHT22;39101;53.478;6.158;2022-12-18T09:41:03;-3.50;99.90
51500;DHT22;39101;53.478;6.158;2022-12-18T09:43:39;-3.50;99.90
51500;DHT22;39101;53.478;6.158;2022-12-18T09:46:39;-3.40;99.90
51500;DHT22;39101;53.478;6.158;2022-12-18T09:49:18;-3.40;99.90
51500;DHT22;39101;53.478;6.158;2022-12-18T09:51:58;-3.40;99.90
51500;DHT22;39101;53.478;6.158;2022-12-18T09:54:41;-3.40;99.90
51500;DHT22;39101;53.478;6.158;2022-12-18T09:57:14;-3.30;99.90
51500;DHT22;39101;53.478;6.158;2022-12-18T09:59:42;-3.20;99.90
51500;DHT22;39101;53.478;6.158;2022-12-18T10:02:18;-3.10;99.90
51500;DHT22;39101;53.478;6.158;2022-12-18T10:04:53;-3.10;99.90
51500;DHT22;39101;53.478;6.158;2022-12-18T10:07:38;-2.90;99.90
51500;DHT22;39101;53.478;6.158;2022-12-18T10:12:51;-2.60;99.90
51500;DHT22;39101;53.478;6.158;2022-12-18T10:15:28;-2.60;99.90
51500;DHT22;39101;53.478;6.158;2022-12-18T10:18:29;-1.90;99.90
51500;DHT22;39101;53.478;6.158;2022-12-18T10:21:03;-2.50;99.90
51500;DHT22;39101;53.478;6.158;2022-12-18T10:26:24;-2.40;99.90
51500;DHT22;39101;53.478;6.158;2022-12-18T10:28:51;-2.40;99.90
51500;DHT22;39101;53.478;6.158;2022-12-18T10:31:22;-2.40;99.90
51500;DHT22;39101;53.478;6.158;2022-12-18T10:33:48;-2.50;99.90
51500;DHT22;39101;53.478;6.158;2022-12-18T10:36:14;-1.00;99.90
51500;DHT22;39101;53.478;6.158;2022-12-18T10:38:40;-2.50;99.90
51500;DHT22;39101;53.478;6.158;2022-12-18T10:41:24;-2.50;99.90
51500;DHT22;39101;53.478;6.158;2022-12-18T10:44:20;-2.40;99.90
51500;DHT22;39101;53.478;6.158;2022-12-18T10:46:48;-2.40;99.90
51500;DHT22;39101;53.478;6.158;2022-12-18T10:49:33;-2.50;99.90
51500;DHT22;39101;53.478;6.158;2022-12-18T10:52:14;-2.30;99.90
51500;DHT22;39101;53.478;6.158;2022-12-18T10:54:47;-2.50;99.90
51500;DHT22;39101;53.478;6.158;2022-12-18T10:59:56;-2.50;99.90
51500;DHT22;39101;53.478;6.158;2022-12-18T11:02:33;-2.50;99.90
51500;DHT22;39101;53.478;6.158;2022-12-18T11:04:58;-2.40;99.90
51500;DHT22;39101;53.478;6.158;2022-12-18T11:07:24;-2.50;99.90
51500;DHT22;39101;53.478;6.158;2022-12-18T11:10:00;-2.50;99.90
51500;DHT22;39101;53.478;6.158;2022-12-18T11:12:28;-2.40;99.90
51500;DHT22;39101;53.478;6.158;2022-12-18T11:14:56;-1.90;99.90
51500;DHT22;39101;53.478;6.158;2022-12-18T11:20:06;-2.40;99.90
51500;DHT22;39101;53.478;6.158;2022-12-18T11:22:34;-2.40;99.90
51500;DHT22;39101;53.478;6.158;2022-12-18T11:27:52;-2.30;99.90
51500;DHT22;39101;53.478;6.158;2022-12-18T11:30:32;-2.20;99.90
51500;DHT22;39101;53.478;6.158;2022-12-18T11:33:12;-2.20;99.90
51500;DHT22;39101;53.478;6.158;2022-12-18T11:35:56;-2.20;99.90
51500;DHT22;39101;53.478;6.158;2022-12-18T11:38:38;-2.10;99.90
51500;DHT22;39101;53.478;6.158;2022-12-18T11:41:07;-2.10;99.90
51500;DHT22;39101;53.478;6.158;2022-12-18T11:43:55;-1.50;99.90
51500;DHT22;39101;53.478;6.158;2022-12-18T11:46:36;-2.10;99.90
51500;DHT22;39101;53.478;6.158;2022-12-18T11:49:18;-2.10;99.90
51500;DHT22;39101;53.478;6.158;2022-12-18T11:54:38;-2.00;99.90
51500;DHT22;39101;53.478;6.158;2022-12-18T12:05:19;-2.10;99.90
51500;DHT22;39101;53.478;6.158;2022-12-18T12:07:54;-2.10;99.90
51500;DHT22;39101;53.478;6.158;2022-12-18T12:24:30;-2.00;99.90
51500;DHT22;39101;53.478;6.158;2022-12-18T12:29:50;-2.00;99.90
51500;DHT22;39101;53.478;6.158;2022-12-18T12:40:07;-2.00;99.90
51500;DHT22;39101;53.478;6.158;2022-12-18T12:43:27;-2.00;99.90
51500;DHT22;39101;53.478;6.158;2022-12-18T12:50:50;-1.90;99.90
51500;DHT22;39101;53.478;6.158;2022-12-18T12:53:25;-2.00;99.90
51500;DHT22;39101;53.478;6.158;2022-12-18T12:55:52;-1.90;99.90
51500;DHT22;39101;53.478;6.158;2022-12-18T13:06:24;-1.90;99.90
51500;DHT22;39101;53.478;6.158;2022-12-18T13:09:01;-1.80;99.90
51500;DHT22;39101;53.478;6.158;2022-12-18T13:11:35;-1.80;99.90
51500;DHT22;39101;53.478;6.158;2022-12-18T13:14:22;-1.80;99.90
51500;DHT22;39101;53.478;6.158;2022-12-18T13:16:48;-1.80;99.90
51500;DHT22;39101;53.478;6.158;2022-12-18T13:19:24;-1.70;99.90
51500;DHT22;39101;53.478;6.158;2022-12-18T13:21:55;-1.80;99.90
51500;DHT22;39101;53.478;6.158;2022-12-18T13:24:27;-1.70;99.90
51500;DHT22;39101;53.478;6.158;2022-12-18T13:26:55;-0.40;99.90
51500;DHT22;39101;53.478;6.158;2022-12-18T13:29:44;-1.60;99.90
51500;DHT22;39101;53.478;6.158;2022-12-18T13:32:25;-1.70;99.90
51500;DHT22;39101;53.478;6.158;2022-12-18T13:37:43;-1.70;99.90
51500;DHT22;39101;53.478;6.158;2022-12-18T13:43:00;-1.70;99.90
51500;DHT22;39101;53.478;6.158;2022-12-18T13:45:41;-1.70;99.90
51500;DHT22;39101;53.478;6.158;2022-12-18T13:48:20;-1.70;99.90
51500;DHT22;39101;53.478;6.158;2022-12-18T13:50:53;-1.00;99.90
51500;DHT22;39101;53.478;6.158;2022-12-18T13:53:24;-1.70;99.90
51500;DHT22;39101;53.478;6.158;2022-12-18T13:55:51;-1.70;99.90
51500;DHT22;39101;53.478;6.158;2022-12-18T13:58:17;-1.70;99.90
51500;DHT22;39101;53.478;6.158;2022-12-18T14:00:43;-1.40;99.90
51500;DHT22;39101;53.478;6.158;2022-12-18T14:03:24;-1.70;99.90
51500;DHT22;39101;53.478;6.158;2022-12-18T14:06:03;-1.60;99.90
51500;DHT22;39101;53.478;6.158;2022-12-18T14:08:37;-1.70;99.90
51500;DHT22;39101;53.478;6.158;2022-12-18T14:11:04;-1.70;99.90
51500;DHT22;39101;53.478;6.158;2022-12-18T14:13:36;-1.70;99.90
51500;DHT22;39101;53.478;6.158;2022-12-18T14:16:04;-1.60;99.90
51500;DHT22;39101;53.478;6.158;2022-12-18T14:18:56;-1.60;99.90
51500;DHT22;39101;53.478;6.158;2022-12-18T14:21:27;-1.20;99.90
51500;DHT22;39101;53.478;6.158;2022-12-18T14:24:14;-1.60;99.90
51500;DHT22;39101;53.478;6.158;2022-12-18T14:26:40;-1.70;99.90
51500;DHT22;39101;53.478;6.158;2022-12-18T14:29:28;-1.00;99.90
51500;DHT22;39101;53.478;6.158;2022-12-18T14:32:16;-1.60;99.90
51500;DHT22;39101;53.478;6.158;2022-12-18T14:34:50;-0.20;99.90
51500;DHT22;39101;53.478;6.158;2022-12-18T14:37:20;-1.60;99.90
51500;DHT22;39101;53.478;6.158;2022-12-18T14:39:57;-0.40;99.90
51500;DHT22;39101;53.478;6.158;2022-12-18T14:42:24;-1.60;99.90
51500;DHT22;39101;53.478;6.158;2022-12-18T14:48:00;-1.60;99.90
51500;DHT22;39101;53.478;6.158;2022-12-18T14:50:32;-1.60;99.90
51500;DHT22;39101;53.478;6.158;2022-12-18T14:52:58;-1.60;99.90
51500;DHT22;39101;53.478;6.158;2022-12-18T14:55:24;-1.60;99.90
51500;DHT22;39101;53.478;6.158;2022-12-18T14:57:52;-1.70;99.90
51500;DHT22;39101;53.478;6.158;2022-12-18T15:00:21;-1.20;99.90
51500;DHT22;39101;53.478;6.158;2022-12-18T15:02:50;-1.60;99.90
51500;DHT22;39101;53.478;6.158;2022-12-18T15:07:49;-1.70;99.90
51500;DHT22;39101;53.478;6.158;2022-12-18T15:20:41;-1.70;99.90
51500;DHT22;39101;53.478;6.158;2022-12-18T15:26:09;-1.70;99.90
51500;DHT22;39101;53.478;6.158;2022-12-18T15:33:36;-1.70;99.90
51500;DHT22;39101;53.478;6.158;2022-12-18T15:36:09;-1.60;99.90
51500;DHT22;39101;53.478;6.158;2022-12-18T15:38:35;-1.70;99.90
51500;DHT22;39101;53.478;6.158;2022-12-18T15:41:02;-1.70;99.90
51500;DHT22;39101;53.478;6.158;2022-12-18T15:43:28;-1.70;99.90
51500;DHT22;39101;53.478;6.158;2022-12-18T15:46:14;-1.70;99.90
51500;DHT22;39101;53.478;6.158;2022-12-18T15:48:48;-1.70;99.90
51500;DHT22;39101;53.478;6.158;2022-12-18T15:51:23;-1.40;99.90
51500;DHT22;39101;53.478;6.158;2022-12-18T15:53:52;-1.70;99.90
51500;DHT22;39101;53.478;6.158;2022-12-18T15:56:19;-1.80;99.90
51500;DHT22;39101;53.478;6.158;2022-12-18T15:59:18;-1.70;99.90
51500;DHT22;39101;53.478;6.158;2022-12-18T16:01:46;-1.30;99.90
51500;DHT22;39101;53.478;6.158;2022-12-18T16:04:14;-1.00;99.90
51500;DHT22;39101;53.478;6.158;2022-12-18T16:06:40;-1.80;99.90
51500;DHT22;39101;53.478;6.158;2022-12-18T16:09:07;-1.80;99.90
51500;DHT22;39101;53.478;6.158;2022-12-18T16:11:35;-1.80;99.90
51500;DHT22;39101;53.478;6.158;2022-12-18T16:14:18;-1.90;99.90
51500;DHT22;39101;53.478;6.158;2022-12-18T16:16:51;-1.90;99.90
51500;DHT22;39101;53.478;6.158;2022-12-18T16:19:18;-1.90;99.90
51500;DHT22;39101;53.478;6.158;2022-12-18T16:21:45;-1.90;99.90
51500;DHT22;39101;53.478;6.158;2022-12-18T16:24:18;-1.90;99.90
51500;DHT22;39101;53.478;6.158;2022-12-18T16:26:44;-0.80;99.90
51500;DHT22;39101;53.478;6.158;2022-12-18T16:29:10;-1.90;99.90
51500;DHT22;39101;53.478;6.158;2022-12-18T16:31:37;-1.30;99.90
51500;DHT22;39101;53.478;6.158;2022-12-18T16:36:52;-1.90;99.90
51500;DHT22;39101;53.478;6.158;2022-12-18T16:39:19;-1.90;99.90
51500;DHT22;39101;53.478;6.158;2022-12-18T16:41:45;-1.90;99.90
51500;DHT22;39101;53.478;6.158;2022-12-18T16:44:11;-1.90;99.90
51500;DHT22;39101;53.478;6.158;2022-12-18T16:46:37;-2.00;99.90
51500;DHT22;39101;53.478;6.158;2022-12-18T16:49:03;-1.90;99.90
51500;DHT22;39101;53.478;6.158;2022-12-18T16:51:29;-1.90;99.90
51500;DHT22;39101;53.478;6.158;2022-12-18T16:53:55;-1.90;99.90
51500;DHT22;39101;53.478;6.158;2022-12-18T16:56:20;-1.90;99.90
51500;DHT22;39101;53.478;6.158;2022-12-18T16:58:57;-1.90;99.90
51500;DHT22;39101;53.478;6.158;2022-12-18T17:01:24;-1.90;99.90
51500;DHT22;39101;53.478;6.158;2022-12-18T17:03:58;-1.90;99.90
51500;DHT22;39101;53.478;6.158;2022-12-18T17:06:26;-1.90;99.90
51500;DHT22;39101;53.478;6.158;2022-12-18T17:08:57;-1.30;99.90
51500;DHT22;39101;53.478;6.158;2022-12-18T17:11:28;-1.90;99.90
51500;DHT22;39101;53.478;6.158;2022-12-18T17:13:54;-1.90;99.90
51500;DHT22;39101;53.478;6.158;2022-12-18T17:16:20;-1.80;99.90
51500;DHT22;39101;53.478;6.158;2022-12-18T17:18:46;-1.80;99.90
51500;DHT22;39101;53.478;6.158;2022-12-18T17:21:12;-1.80;99.90
51500;DHT22;39101;53.478;6.158;2022-12-18T17:23:42;-1.70;99.90
51500;DHT22;39101;53.478;6.158;2022-12-18T17:26:08;-1.70;99.90
51500;DHT22;39101;53.478;6.158;2022-12-18T17:28:35;-1.70;99.90
51500;DHT22;39101;53.478;6.158;2022-12-18T17:31:02;-1.70;99.90
51500;DHT22;39101;53.478;6.158;2022-12-18T17:33:35;-1.70;99.90
51500;DHT22;39101;53.478;6.158;2022-12-18T17:36:01;-1.60;99.90
51500;DHT22;39101;53.478;6.158;2022-12-18T17:38:26;-0.30;99.90
51500;DHT22;39101;53.478;6.158;2022-12-18T17:40:52;-1.60;99.90
51500;DHT22;39101;53.478;6.158;2022-12-18T17:43:17;-1.60;99.90
51500;DHT22;39101;53.478;6.158;2022-12-18T17:45:43;-0.40;99.90
51500;DHT22;39101;53.478;6.158;2022-12-18T17:48:09;-1.60;99.90
51500;DHT22;39101;53.478;6.158;2022-12-18T17:50:35;-1.60;99.90